Time;durP1;ratioP1;P1;durP2;ratioP2;P2;SDS_P1;SDS_P2;PMS_P1;PMS_P2;Temp;Humidity;BMP_temperature;BMP_pressure;BME280_temperature;BME280_humidity;BME280_pressure;Samples;Min_cycle;Max_cycle;Signal;HPM_P1;HPM_P2
2023/09/09 04:35:50;;;;;;;2.15;1.40;;;;;;;;;;5065969;28;21919;-82
2023/09/09 04:38:17;;;;;;;1.60;1.50;;;;;;;;;;5061407;28;20094;-84
2023/09/09 04:40:59;;;;;;;1.67;1.08;;;;;;;;;;5053444;28;20116;-85
2023/09/09 04:43:24;;;;;;;2.75;1.77;;;;;;;;;;5064832;28;20074;-85
2023/09/09 04:45:50;;;;;;;3.08;1.40;;;;;;;;;;5065315;28;20032;-84
2023/09/09 04:48:15;;;;;;;2.10;1.10;;;;;;;;;;5066093;28;20029;-85
2023/09/09 04:50:41;;;;;;;1.77;1.00;;;;;;;;;;5064108;28;20032;-84
2023/09/09 04:53:07;;;;;;;3.60;1.98;;;;;;;;;;5070681;28;20059;-84
2023/09/09 04:55:35;;;;;;;5.72;2.78;;;;;;;;;;5061346;28;20465;-83
2023/09/09 04:58:01;;;;;;;4.70;2.75;;;;;;;;;;5067878;28;20032;-83
2023/09/09 05:00:26;;;;;;;8.48;2.22;;;;;;;;;;5069683;28;20029;-83
2023/09/09 05:02:52;;;;;;;4.35;3.17;;;;;;;;;;5063422;28;20024;-85
2023/09/09 05:05:20;;;;;;;5.15;3.08;;;;;;;;;;5062457;28;20027;-85
2023/09/09 05:07:45;;;;;;;4.78;2.30;;;;;;;;;;5064809;28;20546;-85
2023/09/09 05:10:11;;;;;;;5.20;3.15;;;;;;;;;;5067157;28;20024;-84
2023/09/09 05:12:36;;;;;;;5.55;3.22;;;;;;;;;;5069388;28;20021;-85
2023/09/09 05:15:03;;;;;;;4.60;3.70;;;;;;;;;;5065388;28;20385;-85
2023/09/09 05:17:32;;;;;;;4.47;3.10;;;;;;;;;;5071761;28;20028;-84
2023/09/09 05:19:57;;;;;;;4.30;3.72;;;;;;;;;;5068025;28;20137;-84
2023/09/09 05:22:26;;;;;;;4.97;2.60;;;;;;;;;;5073681;28;20133;-84
2023/09/09 05:24:51;;;;;;;5.00;3.28;;;;;;;;;;5064013;28;20058;-84
2023/09/09 05:27:17;;;;;;;6.55;3.47;;;;;;;;;;5067137;28;20115;-84
2023/09/09 05:29:43;;;;;;;7.47;3.47;;;;;;;;;;5068656;28;20058;-83
2023/09/09 05:32:08;;;;;;;4.03;2.60;;;;;;;;;;5065463;28;20021;-86
2023/09/09 05:34:33;;;;;;;4.30;2.90;;;;;;;;;;5062002;28;20046;-85
2023/09/09 05:36:59;;;;;;;3.80;3.38;;;;;;;;;;5061641;28;20468;-84
2023/09/09 05:39:24;;;;;;;7.53;3.45;;;;;;;;;;5075838;28;20021;-85
2023/09/09 05:41:50;;;;;;;5.45;3.35;;;;;;;;;;5074673;28;20072;-82
2023/09/09 05:44:15;;;;;;;8.25;5.57;;;;;;;;;;5071703;28;20032;-82
2023/09/09 05:46:41;;;;;;;2.10;1.70;;;;;;;;;;5051254;28;20032;-83
2023/09/09 05:49:06;;;;;;;6.15;3.42;;;;;;;;;;5061139;28;20447;-84
2023/09/09 05:51:32;;;;;;;3.03;2.22;;;;;;;;;;5048457;28;20024;-84
2023/09/09 05:53:57;;;;;;;5.35;3.28;;;;;;;;;;5049302;28;20470;-84
2023/09/09 05:56:23;;;;;;;4.03;2.88;;;;;;;;;;5051792;28;20033;-85
2023/09/09 05:58:51;;;;;;;3.67;2.60;;;;;;;;;;5057259;28;20032;-83
2023/09/09 06:01:59;;;;;;;4.60;2.80;;;;;;;;;;5056129;28;20020;-84
2023/09/09 06:07:47;;;;;;;5.68;3.28;;;;;;;;;;5050479;28;20425;-84
2023/09/09 06:10:13;;;;;;;2.67;1.85;;;;;;;;;;5055767;28;20037;-85
2023/09/09 06:12:38;;;;;;;6.90;4.00;;;;;;;;;;5052248;28;20025;-84
2023/09/09 06:15:04;;;;;;;4.07;3.22;;;;;;;;;;5052299;28;20162;-84
2023/09/09 06:17:30;;;;;;;5.93;3.00;;;;;;;;;;5061922;28;20032;-85
2023/09/09 06:19:56;;;;;;;6.07;3.55;;;;;;;;;;5051978;28;20468;-84
2023/09/09 06:22:21;;;;;;;3.72;3.03;;;;;;;;;;5056258;28;20037;-83
2023/09/09 06:24:47;;;;;;;9.55;3.67;;;;;;;;;;5050326;28;20025;-86
2023/09/09 06:27:12;;;;;;;3.08;2.33;;;;;;;;;;5052924;28;20130;-84
2023/09/09 06:29:37;;;;;;;4.15;3.20;;;;;;;;;;5064393;28;20045;-84
2023/09/09 06:32:06;;;;;;;13.57;3.33;;;;;;;;;;5052130;28;20025;-84
2023/09/09 06:34:31;;;;;;;4.15;3.10;;;;;;;;;;5047973;28;20564;-84
2023/09/09 06:36:57;;;;;;;6.25;4.15;;;;;;;;;;5057726;28;20107;-81
2023/09/09 06:39:22;;;;;;;4.05;3.15;;;;;;;;;;5051420;28;20534;-83
2023/09/09 06:41:47;;;;;;;3.38;2.35;;;;;;;;;;5040743;28;20044;-82
2023/09/09 06:44:13;;;;;;;3.72;2.45;;;;;;;;;;5044377;28;20388;-81
2023/09/09 06:46:38;;;;;;;3.20;2.33;;;;;;;;;;5083589;28;20037;-81
2023/09/09 06:49:04;;;;;;;3.72;2.97;;;;;;;;;;5045603;28;20060;-81
2023/09/09 06:51:29;;;;;;;5.63;2.50;;;;;;;;;;5046872;28;20033;-82
2023/09/09 06:53:54;;;;;;;6.85;3.55;;;;;;;;;;5065677;28;20035;-82
2023/09/09 06:56:20;;;;;;;4.82;2.92;;;;;;;;;;5059761;28;20090;-81
2023/09/09 06:58:45;;;;;;;4.50;3.05;;;;;;;;;;5051173;28;20432;-82
2023/09/09 07:01:11;;;;;;;3.72;2.95;;;;;;;;;;5055415;28;20426;-81
2023/09/09 07:03:37;;;;;;;2.97;2.40;;;;;;;;;;5065384;28;20029;-81
2023/09/09 07:06:03;;;;;;;3.33;2.22;;;;;;;;;;5053876;28;20079;-83
2023/09/09 07:08:29;;;;;;;2.78;2.40;;;;;;;;;;5062128;28;20025;-81
2023/09/09 07:10:56;;;;;;;2.53;2.17;;;;;;;;;;5063613;28;20028;-81
2023/09/09 07:13:22;;;;;;;1.98;1.60;;;;;;;;;;5063262;28;20020;-81
2023/09/09 07:15:50;;;;;;;2.58;2.33;;;;;;;;;;5050640;28;20068;-82
2023/09/09 07:18:16;;;;;;;2.13;1.80;;;;;;;;;;5052783;28;20021;-81
2023/09/09 07:20:42;;;;;;;3.42;1.90;;;;;;;;;;5057003;28;20100;-82
2023/09/09 07:23:07;;;;;;;2.65;1.90;;;;;;;;;;5059563;28;20191;-81
2023/09/09 07:25:33;;;;;;;1.23;1.13;;;;;;;;;;5061727;28;20350;-81
2023/09/09 07:27:59;;;;;;;1.92;1.38;;;;;;;;;;5056541;28;20116;-80
2023/09/09 07:30:24;;;;;;;1.70;1.05;;;;;;;;;;5054712;28;20116;-81
2023/09/09 07:32:50;;;;;;;2.75;1.15;;;;;;;;;;5046394;28;20045;-82
2023/09/09 07:35:15;;;;;;;1.08;0.65;;;;;;;;;;5054578;28;20037;-81
2023/09/09 07:37:40;;;;;;;0.55;0.45;;;;;;;;;;5057412;28;20028;-81
2023/09/09 07:40:06;;;;;;;2.40;1.40;;;;;;;;;;5056048;28;20107;-81
2023/09/09 07:42:32;;;;;;;0.95;0.80;;;;;;;;;;5059213;28;20423;-81
2023/09/09 07:44:57;;;;;;;1.17;0.80;;;;;;;;;;5058803;28;20024;-80
2023/09/09 07:47:23;;;;;;;1.05;0.75;;;;;;;;;;5060035;28;20032;-80
2023/09/09 07:49:49;;;;;;;0.60;0.60;;;;;;;;;;5044174;28;20029;-81
2023/09/09 07:52:14;;;;;;;0.63;0.60;;;;;;;;;;5050795;28;20046;-80
2023/09/09 07:54:40;;;;;;;0.70;0.55;;;;;;;;;;5063580;28;20636;-82
2023/09/09 07:57:06;;;;;;;0.82;0.82;;;;;;;;;;5069405;28;20037;-82
2023/09/09 07:59:31;;;;;;;0.98;0.75;;;;;;;;;;5052145;28;20029;-80
2023/09/09 08:01:56;;;;;;;0.68;0.60;;;;;;;;;;5058269;28;20388;-81
2023/09/09 08:04:22;;;;;;;0.90;0.73;;;;;;;;;;5059942;28;20036;-81
2023/09/09 08:06:50;;;;;;;1.10;1.00;;;;;;;;;;5059075;28;20086;-80
2023/09/09 08:09:15;;;;;;;19.67;2.33;;;;;;;;;;5053162;28;20017;-82
2023/09/09 08:11:41;;;;;;;5.65;1.63;;;;;;;;;;5050435;28;20419;-80
2023/09/09 08:14:06;;;;;;;1.10;0.95;;;;;;;;;;5057493;28;20035;-80
2023/09/09 08:16:32;;;;;;;0.60;0.60;;;;;;;;;;5059357;28;20044;-81
2023/09/09 08:19:00;;;;;;;1.10;0.80;;;;;;;;;;5058618;28;20056;-80
2023/09/09 08:21:25;;;;;;;0.52;0.52;;;;;;;;;;5056560;28;20456;-82
2023/09/09 08:23:52;;;;;;;2.30;1.05;;;;;;;;;;5062243;28;20032;-80
2023/09/09 08:26:17;;;;;;;3.30;1.70;;;;;;;;;;5054670;28;20028;-79
2023/09/09 08:28:43;;;;;;;1.30;1.00;;;;;;;;;;5054555;28;20104;-81
2023/09/09 08:31:08;;;;;;;0.38;0.32;;;;;;;;;;5056071;28;20028;-81
2023/09/09 08:33:34;;;;;;;2.55;1.08;;;;;;;;;;5047622;28;20472;-81
2023/09/09 08:36:01;;;;;;;0.82;0.45;;;;;;;;;;5056713;28;20044;-80
2023/09/09 08:38:26;;;;;;;0.57;0.47;;;;;;;;;;5059023;28;20035;-82
2023/09/09 08:40:59;;;;;;;0.55;0.55;;;;;;;;;;5060534;28;20029;-80
2023/09/09 08:43:41;;;;;;;6.90;1.45;;;;;;;;;;5058003;28;20099;-80
2023/09/09 08:46:14;;;;;;;1.08;0.80;;;;;;;;;;5051255;28;20064;-81
2023/09/09 08:48:42;;;;;;;1.85;1.02;;;;;;;;;;5059820;28;20037;-81
2023/09/09 08:51:13;;;;;;;0.88;0.70;;;;;;;;;;5051177;28;20021;-80
2023/09/09 08:53:41;;;;;;;0.98;0.73;;;;;;;;;;5064108;28;20024;-80
2023/09/09 08:56:07;;;;;;;2.15;0.90;;;;;;;;;;5057155;28;20070;-79
2023/09/09 08:58:32;;;;;;;0.63;0.63;;;;;;;;;;5053786;28;20024;-81
2023/09/09 09:00:59;;;;;;;0.77;0.75;;;;;;;;;;5051481;28;20060;-80
2023/09/09 09:03:26;;;;;;;1.08;0.88;;;;;;;;;;5053522;28;20025;-80
2023/09/09 09:05:54;;;;;;;0.45;0.45;;;;;;;;;;5048389;28;20029;-81
2023/09/09 09:08:19;;;;;;;0.60;0.50;;;;;;;;;;5051076;28;20085;-82
2023/09/09 09:10:48;;;;;;;1.38;0.85;;;;;;;;;;5048318;28;20032;-84
2023/09/09 09:13:14;;;;;;;1.37;0.40;;;;;;;;;;5061284;28;20380;-82
2023/09/09 09:15:41;;;;;;;1.80;1.15;;;;;;;;;;5059053;28;20033;-84
2023/09/09 09:18:08;;;;;;;0.82;0.63;;;;;;;;;;5048914;28;20053;-83
2023/09/09 09:20:40;;;;;;;1.73;1.17;;;;;;;;;;5039937;28;20025;-84
2023/09/09 09:23:06;;;;;;;1.20;0.98;;;;;;;;;;5062994;28;20674;-83
2023/09/09 09:25:37;;;;;;;0.90;0.70;;;;;;;;;;5060158;28;20159;-87
2023/09/09 09:28:03;;;;;;;4.10;1.50;;;;;;;;;;5055590;28;20056;-82
2023/09/09 09:30:29;;;;;;;0.88;0.73;;;;;;;;;;5057397;28;20031;-82
2023/09/09 09:32:56;;;;;;;1.25;1.00;;;;;;;;;;5057874;28;20151;-84
2023/09/09 09:35:23;;;;;;;0.40;0.40;;;;;;;;;;5057415;28;20045;-84
2023/09/09 09:37:52;;;;;;;1.17;0.73;;;;;;;;;;5063804;28;20052;-82
2023/09/09 09:40:18;;;;;;;0.63;0.57;;;;;;;;;;5062872;28;20032;-81
2023/09/09 09:42:43;;;;;;;0.80;0.57;;;;;;;;;;5068085;28;20020;-82
2023/09/09 09:45:09;;;;;;;0.55;0.50;;;;;;;;;;5057731;28;20071;-84
2023/09/09 09:47:50;;;;;;;0.95;0.85;;;;;;;;;;5062508;28;20062;-85
2023/09/09 09:50:32;;;;;;;0.63;0.63;;;;;;;;;;5062205;28;20031;-84
2023/09/09 09:53:02;;;;;;;0.90;0.55;;;;;;;;;;5058450;28;20031;-82
2023/09/09 09:55:29;;;;;;;1.20;0.85;;;;;;;;;;5057996;28;20523;-85
2023/09/09 09:57:57;;;;;;;1.23;0.70;;;;;;;;;;5060460;28;20157;-82
2023/09/09 10:00:24;;;;;;;5.78;1.08;;;;;;;;;;5064728;28;20044;-82
2023/09/09 10:02:54;;;;;;;0.47;0.47;;;;;;;;;;5061488;28;20770;-82
2023/09/09 10:05:46;;;;;;;1.83;1.13;;;;;;;;;;5057087;28;20488;-82
2023/09/09 10:08:15;;;;;;;1.30;0.80;;;;;;;;;;5060325;28;20472;-83
2023/09/09 10:10:57;;;;;;;0.88;0.70;;;;;;;;;;5066713;28;20036;-85
2023/09/09 10:13:35;;;;;;;0.70;0.70;;;;;;;;;;5063117;28;20059;-83
2023/09/09 10:16:01;;;;;;;0.95;0.70;;;;;;;;;;5055098;28;20086;-85
2023/09/09 10:18:28;;;;;;;2.20;0.82;;;;;;;;;;5065261;28;20852;-83
2023/09/09 10:20:54;;;;;;;0.93;0.88;;;;;;;;;;5055947;28;20111;-83
2023/09/09 10:23:21;;;;;;;0.45;0.43;;;;;;;;;;5058852;28;20103;-83
2023/09/09 10:25:50;;;;;;;0.60;0.60;;;;;;;;;;5061657;28;20559;-84
2023/09/09 10:28:19;;;;;;;1.00;0.73;;;;;;;;;;5057616;28;20040;-82
2023/09/09 10:30:47;;;;;;;0.77;0.52;;;;;;;;;;5060919;28;20036;-84
2023/09/09 10:33:13;;;;;;;1.08;0.75;;;;;;;;;;5065646;28;20483;-83
2023/09/09 10:35:40;;;;;;;1.58;0.70;;;;;;;;;;5057602;28;20073;-84
2023/09/09 10:38:07;;;;;;;1.17;0.85;;;;;;;;;;5063959;28;20035;-82
2023/09/09 10:40:34;;;;;;;1.40;0.68;;;;;;;;;;5060896;28;20399;-82
2023/09/09 10:43:00;;;;;;;1.90;0.70;;;;;;;;;;5058154;28;20468;-85
2023/09/09 10:45:35;;;;;;;2.40;0.77;;;;;;;;;;5058940;28;20048;-85
2023/09/09 10:48:03;;;;;;;1.08;0.75;;;;;;;;;;5063925;28;20028;-84
2023/09/09 10:50:43;;;;;;;0.45;0.45;;;;;;;;;;5063148;28;20465;-83
2023/09/09 10:53:29;;;;;;;1.70;1.17;;;;;;;;;;5061073;28;20052;-83
2023/09/09 10:55:58;;;;;;;0.50;0.50;;;;;;;;;;5051215;28;20518;-86
2023/09/09 10:58:34;;;;;;;;;;;;;;;;;;5070169;28;20020;-83
2023/09/09 11:01:00;;;;;;;0.65;0.52;;;;;;;;;;5058010;28;20003;-82
2023/09/09 11:03:49;;;;;;;0.55;0.55;;;;;;;;;;5058045;28;20123;-84
2023/09/09 11:06:29;;;;;;;1.30;0.80;;;;;;;;;;5060586;28;20044;-83
2023/09/09 11:08:55;;;;;;;;;;;;;;;;;;5057476;28;20047;-83
2023/09/09 11:11:26;;;;;;;1.30;0.98;;;;;;;;;;5057376;28;19912;-83
2023/09/09 11:13:57;;;;;;;0.52;0.35;;;;;;;;;;5061300;28;20025;-82
2023/09/09 11:16:31;;;;;;;0.52;0.40;;;;;;;;;;5063337;28;20035;-83
2023/09/09 11:19:02;;;;;;;0.60;0.43;;;;;;;;;;5058520;28;20127;-83
2023/09/09 11:21:32;;;;;;;1.10;0.63;;;;;;;;;;5064317;28;20029;-82
2023/09/09 11:23:58;;;;;;;1.73;0.70;;;;;;;;;;5059535;28;20877;-83
2023/09/09 11:26:24;;;;;;;0.50;0.50;;;;;;;;;;5066249;28;20029;-83
2023/09/09 11:28:50;;;;;;;0.52;0.40;;;;;;;;;;5061743;28;20106;-84
2023/09/09 11:31:17;;;;;;;0.70;0.45;;;;;;;;;;5056140;28;20138;-84
2023/09/09 11:33:42;;;;;;;1.25;0.93;;;;;;;;;;5061470;28;20136;-83
2023/09/09 11:36:08;;;;;;;0.77;0.50;;;;;;;;;;5062746;28;20567;-82
2023/09/09 11:38:39;;;;;;;0.65;0.50;;;;;;;;;;5060497;28;20025;-84
2023/09/09 11:41:06;;;;;;;1.20;0.40;;;;;;;;;;5058682;28;20147;-83
2023/09/09 11:43:32;;;;;;;0.68;0.55;;;;;;;;;;5061724;28;20035;-84
2023/09/09 11:45:58;;;;;;;1.02;0.63;;;;;;;;;;5061453;28;20020;-86
2023/09/09 11:48:23;;;;;;;1.02;0.47;;;;;;;;;;5053694;28;20035;-85
2023/09/09 11:50:51;;;;;;;0.70;0.47;;;;;;;;;;5061497;28;20029;-84
2023/09/09 11:53:19;;;;;;;0.45;0.40;;;;;;;;;;5053922;28;20037;-85
2023/09/09 11:55:44;;;;;;;0.30;0.30;;;;;;;;;;5062827;28;20473;-88
2023/09/09 11:58:10;;;;;;;0.55;0.45;;;;;;;;;;5061142;28;20147;-83
2023/09/09 12:00:35;;;;;;;0.73;0.35;;;;;;;;;;5055354;28;21370;-87
2023/09/09 12:03:00;;;;;;;1.17;0.73;;;;;;;;;;5057379;28;20028;-86
2023/09/09 12:05:29;;;;;;;0.32;0.32;;;;;;;;;;5060545;28;20031;-84
2023/09/09 12:07:59;;;;;;;0.30;0.30;;;;;;;;;;5057430;28;20089;-83
2023/09/09 12:10:33;;;;;;;0.77;0.50;;;;;;;;;;5052832;28;20024;-85
2023/09/09 12:12:59;;;;;;;1.42;0.70;;;;;;;;;;5059710;28;20560;-84
2023/09/09 12:19:13;;;;;;;0.43;0.43;;;;;;;;;;4997101;28;20124;-85
2023/09/09 12:21:46;;;;;;;0.50;0.50;;;;;;;;;;5061429;28;20033;-84
2023/09/09 12:24:11;;;;;;;1.20;0.70;;;;;;;;;;5056015;28;20024;-86
2023/09/09 12:26:36;;;;;;;1.20;0.65;;;;;;;;;;5058394;28;20055;-85
2023/09/09 12:29:09;;;;;;;0.95;0.50;;;;;;;;;;5060071;28;20029;-85
2023/09/09 12:31:49;;;;;;;0.88;0.65;;;;;;;;;;5059035;28;20118;-84
2023/09/09 12:34:18;;;;;;;0.60;0.60;;;;;;;;;;5056292;28;20183;-85
2023/09/09 12:36:44;;;;;;;0.40;0.40;;;;;;;;;;5052587;28;20128;-83
2023/09/09 12:39:17;;;;;;;1.00;0.82;;;;;;;;;;5090569;28;20115;-85
2023/09/09 12:41:43;;;;;;;0.38;0.35;;;;;;;;;;5046656;28;20053;-84
2023/09/09 12:44:09;;;;;;;1.15;0.47;;;;;;;;;;5065407;28;20535;-84
2023/09/09 12:46:34;;;;;;;1.40;0.65;;;;;;;;;;5058433;28;20128;-83
2023/09/09 12:49:04;;;;;;;0.50;0.47;;;;;;;;;;5068660;28;20480;-87
2023/09/09 12:51:30;;;;;;;1.15;0.60;;;;;;;;;;5066339;28;20025;-82
2023/09/09 12:53:59;;;;;;;1.02;0.70;;;;;;;;;;5052798;28;20040;-85
2023/09/09 12:56:25;;;;;;;0.73;0.60;;;;;;;;;;5061013;28;20033;-84
2023/09/09 12:58:51;;;;;;;1.00;0.82;;;;;;;;;;5058802;28;20025;-85
2023/09/09 13:01:16;;;;;;;0.70;0.38;;;;;;;;;;5072993;28;20028;-85
2023/09/09 13:03:45;;;;;;;1.15;0.60;;;;;;;;;;5067223;28;20038;-84
2023/09/09 13:06:13;;;;;;;0.73;0.52;;;;;;;;;;5061081;28;20068;-83
2023/09/09 13:08:41;;;;;;;0.95;0.38;;;;;;;;;;5054014;28;20072;-83
2023/09/09 13:11:10;;;;;;;0.75;0.75;;;;;;;;;;5062651;28;20039;-83
2023/09/09 13:13:39;;;;;;;0.95;0.57;;;;;;;;;;5061142;28;20107;-84
2023/09/09 13:16:06;;;;;;;0.85;0.65;;;;;;;;;;5056574;28;20029;-85
2023/09/09 13:18:32;;;;;;;0.52;0.45;;;;;;;;;;5067407;28;20033;-85
2023/09/09 13:20:57;;;;;;;0.88;0.47;;;;;;;;;;5057108;28;20033;-85
2023/09/09 13:23:22;;;;;;;0.60;0.55;;;;;;;;;;5067257;28;20027;-85
2023/09/09 13:26:13;;;;;;;0.57;0.40;;;;;;;;;;5049545;28;20380;-85
2023/09/09 13:28:37;;;;;;;;;;;;;;;;;;5053565;28;20044;-83
2023/09/09 13:31:02;;;;;;;0.38;0.38;;;;;;;;;;5055064;28;19973;-84
2023/09/09 13:33:28;;;;;;;0.50;0.40;;;;;;;;;;5055685;28;20416;-82
2023/09/09 13:35:54;;;;;;;0.63;0.50;;;;;;;;;;5056654;28;20033;-84
2023/09/09 13:38:19;;;;;;;0.50;0.50;;;;;;;;;;5067563;28;20020;-84
2023/09/09 13:40:45;;;;;;;1.35;0.75;;;;;;;;;;5061044;28;20032;-84
2023/09/09 13:43:10;;;;;;;0.50;0.45;;;;;;;;;;5064743;28;20078;-85
2023/09/09 13:45:36;;;;;;;0.63;0.63;;;;;;;;;;5058695;28;20024;-85
2023/09/09 13:48:01;;;;;;;2.90;0.60;;;;;;;;;;5058177;28;20033;-83
2023/09/09 13:50:26;;;;;;;0.88;0.47;;;;;;;;;;5058116;28;20167;-84
2023/09/09 13:52:52;;;;;;;1.13;0.65;;;;;;;;;;5061380;28;20081;-84
2023/09/09 13:55:17;;;;;;;0.80;0.45;;;;;;;;;;5062186;28;20499;-83
2023/09/09 13:57:44;;;;;;;1.85;0.65;;;;;;;;;;5068415;28;20041;-84
2023/09/09 14:00:10;;;;;;;0.47;0.47;;;;;;;;;;5061126;28;20123;-87
2023/09/09 14:02:36;;;;;;;0.68;0.55;;;;;;;;;;5062652;28;20104;-86
2023/09/09 14:05:01;;;;;;;0.47;0.47;;;;;;;;;;5057987;28;20044;-86
2023/09/09 14:07:27;;;;;;;0.73;0.73;;;;;;;;;;5060956;28;20033;-84
2023/09/09 14:09:52;;;;;;;0.47;0.40;;;;;;;;;;5066842;28;20480;-83
2023/09/09 14:12:17;;;;;;;1.70;0.60;;;;;;;;;;5058575;28;20031;-85
2023/09/09 14:14:43;;;;;;;0.60;0.60;;;;;;;;;;5052741;28;20017;-83
2023/09/09 14:17:08;;;;;;;0.73;0.50;;;;;;;;;;5047981;28;20021;-83
2023/09/09 14:19:34;;;;;;;0.45;0.43;;;;;;;;;;5054794;28;20057;-83
2023/09/09 14:21:59;;;;;;;0.50;0.40;;;;;;;;;;5048892;28;20416;-83
2023/09/09 14:24:24;;;;;;;4.70;0.75;;;;;;;;;;5048565;28;20012;-83
2023/09/09 14:26:50;;;;;;;0.55;0.35;;;;;;;;;;5048334;28;20025;-83
2023/09/09 14:29:15;;;;;;;1.75;0.60;;;;;;;;;;5048728;28;20029;-84
2023/09/09 14:31:41;;;;;;;6.07;0.80;;;;;;;;;;5043796;28;20028;-82
2023/09/09 14:34:06;;;;;;;0.40;0.40;;;;;;;;;;5053487;28;20072;-83
2023/09/09 14:36:31;;;;;;;1.38;0.60;;;;;;;;;;5053790;28;20060;-83
2023/09/09 14:38:57;;;;;;;0.85;0.60;;;;;;;;;;5046941;28;20108;-82
2023/09/09 14:41:22;;;;;;;0.57;0.30;;;;;;;;;;5054791;28;20384;-83
2023/09/09 14:43:48;;;;;;;0.93;0.60;;;;;;;;;;5052661;28;20483;-84
2023/09/09 14:46:13;;;;;;;0.75;0.50;;;;;;;;;;5055270;28;20032;-83
2023/09/09 14:49:00;;;;;;;0.88;0.38;;;;;;;;;;5066908;28;20025;-81
2023/09/09 14:51:29;;;;;;;0.45;0.45;;;;;;;;;;5051141;28;20476;-84
2023/09/09 14:53:54;;;;;;;0.88;0.70;;;;;;;;;;5069573;28;20029;-82
2023/09/09 14:56:21;;;;;;;0.90;0.50;;;;;;;;;;5055480;28;20503;-83
2023/09/09 14:58:46;;;;;;;2.13;0.63;;;;;;;;;;5064930;28;20039;-81
2023/09/09 15:01:12;;;;;;;0.93;0.32;;;;;;;;;;5050865;28;20021;-83
2023/09/09 15:03:38;;;;;;;1.25;0.50;;;;;;;;;;5054395;28;20111;-82
2023/09/09 15:06:05;;;;;;;1.05;0.30;;;;;;;;;;5051183;28;20074;-81
2023/09/09 15:08:30;;;;;;;1.80;0.95;;;;;;;;;;5056139;28;20036;-82
2023/09/09 15:10:56;;;;;;;0.82;0.50;;;;;;;;;;5066118;28;20025;-82
2023/09/09 15:13:21;;;;;;;0.65;0.45;;;;;;;;;;5057375;28;20121;-82
2023/09/09 15:15:47;;;;;;;1.02;0.70;;;;;;;;;;5061506;28;20060;-81
2023/09/09 15:18:12;;;;;;;0.40;0.40;;;;;;;;;;5054684;28;20067;-81
2023/09/09 15:20:37;;;;;;;1.15;0.60;;;;;;;;;;5065862;28;20028;-82
2023/09/09 15:23:03;;;;;;;0.55;0.30;;;;;;;;;;5054869;28;20021;-81
2023/09/09 15:25:30;;;;;;;1.35;0.68;;;;;;;;;;5050817;28;20021;-80
2023/09/09 15:27:55;;;;;;;0.35;0.30;;;;;;;;;;5057596;28;20099;-82
2023/09/09 15:30:21;;;;;;;0.38;0.28;;;;;;;;;;5060904;28;20058;-81
2023/09/09 15:32:46;;;;;;;0.17;0.17;;;;;;;;;;5062547;28;20028;-81
2023/09/09 15:35:11;;;;;;;0.50;0.50;;;;;;;;;;5052651;28;20513;-81
2023/09/09 15:37:37;;;;;;;0.80;0.45;;;;;;;;;;5053070;28;20534;-80
2023/09/09 15:40:04;;;;;;;1.30;0.93;;;;;;;;;;5051977;28;20028;-83
2023/09/09 15:42:30;;;;;;;0.73;0.73;;;;;;;;;;5057920;28;20028;-81
2023/09/09 15:44:55;;;;;;;0.63;0.40;;;;;;;;;;5049787;28;20031;-81
2023/09/09 15:47:20;;;;;;;1.95;1.50;;;;;;;;;;5052013;28;20025;-82
